createdAt,value
2023-01-27T00:00:25.436Z,25.80
2023-01-27T00:04:26.986Z,21.67
2023-01-27T00:08:29.664Z,27.38
2023-01-27T00:12:50.562Z,24.40
2023-01-27T00:16:52.996Z,30.30
2023-01-27T00:21:13.232Z,28.42
2023-01-27T00:25:14.786Z,31.48
2023-01-27T00:29:16.335Z,27.42
2023-01-27T00:33:29.751Z,32.38
2023-01-27T00:37:31.381Z,29.08
2023-01-27T00:41:34.083Z,30.08
2023-01-27T00:45:51.314Z,31.92
2023-01-27T00:49:53.190Z,23.20
2023-01-27T00:53:54.819Z,25.38
2023-01-27T00:57:56.367Z,21.13
2023-01-27T01:01:57.939Z,26.90
2023-01-27T01:06:01.062Z,27.38
2023-01-27T01:10:03.850Z,26.52
2023-01-27T01:14:05.372Z,24.02
2023-01-27T01:18:09.380Z,21.48
2023-01-27T01:22:10.908Z,23.55
2023-01-27T01:26:14.048Z,25.17
2023-01-27T01:30:16.082Z,26.27
2023-01-27T01:34:17.740Z,15.57
2023-01-27T01:38:19.300Z,28.85
2023-01-27T01:42:20.882Z,29.20
2023-01-27T01:46:22.570Z,28.80
2023-01-27T01:50:24.538Z,29.38
2023-01-27T01:54:30.169Z,31.67
2023-01-27T01:58:34.019Z,29.25
2023-01-27T02:02:36.941Z,28.17
2023-01-27T02:06:45.681Z,27.13
2023-01-27T02:10:48.174Z,27.92
2023-01-27T02:14:50.712Z,26.60
2023-01-27T02:18:52.262Z,29.58
2023-01-27T02:23:08.002Z,31.67
2023-01-27T02:27:14.349Z,30.25
2023-01-27T02:31:16.024Z,28.30
2023-01-27T02:35:25.805Z,26.63
2023-01-27T02:39:39.637Z,26.40
2023-01-27T02:43:42.053Z,32.78
2023-01-27T02:47:43.738Z,30.90
2023-01-27T02:51:45.583Z,35.97
2023-01-27T02:55:47.233Z,32.33
2023-01-27T02:59:48.881Z,29.27
2023-01-27T03:03:51.427Z,37.80
2023-01-27T03:07:54.204Z,38.10
2023-01-27T03:12:28.277Z,37.17
2023-01-27T03:16:48.489Z,33.92
2023-01-27T03:20:51.338Z,28.83
2023-01-27T03:24:53.079Z,33.90
2023-01-27T03:29:13.249Z,37.20
2023-01-27T03:37:50.863Z,32.97
2023-01-27T03:42:11.172Z,31.52
2023-01-27T03:46:20.014Z,25.63
2023-01-27T03:50:37.719Z,32.25
2023-01-27T03:54:39.536Z,26.98
2023-01-27T03:58:41.508Z,28.95
2023-01-27T04:03:01.952Z,34.27
2023-01-27T04:07:03.536Z,28.42
2023-01-27T04:11:24.208Z,25.35
2023-01-27T04:15:25.730Z,24.85
2023-01-27T04:19:27.784Z,28.05
2023-01-27T04:23:29.410Z,22.77
2023-01-27T04:27:30.988Z,27.17
2023-01-27T04:31:32.986Z,24.83
2023-01-27T04:35:38.893Z,23.63
2023-01-27T04:39:41.919Z,22.63
2023-01-27T04:47:45.157Z,24.13
2023-01-27T04:51:47.505Z,17.52
2023-01-27T04:55:50.274Z,21.38
2023-01-27T04:59:51.832Z,21.60
2023-01-27T05:03:53.790Z,22.75
2023-01-27T05:07:55.397Z,12.60
2023-01-27T05:11:56.949Z,16.45
2023-01-27T05:16:13.983Z,19.23
2023-01-27T05:20:16.009Z,17.85
2023-01-27T05:24:17.591Z,14.03
2023-01-27T05:28:19.142Z,20.02
2023-01-27T05:32:20.708Z,14.95
2023-01-27T05:36:24.050Z,19.27
2023-01-27T05:40:25.614Z,19.00
2023-01-27T05:44:27.161Z,20.00
2023-01-27T05:48:28.960Z,18.83
2023-01-27T05:52:30.526Z,18.95
2023-01-27T05:56:33.153Z,18.33
2023-01-27T06:00:34.716Z,18.05
2023-01-27T06:04:36.281Z,20.77
2023-01-27T06:08:38.584Z,20.20
2023-01-27T06:12:40.148Z,16.63
2023-01-27T06:16:43.609Z,12.80
2023-01-27T06:20:46.086Z,15.43
2023-01-27T06:24:47.676Z,19.45
2023-01-27T06:28:49.435Z,14.75
2023-01-27T06:32:51.013Z,11.80
2023-01-27T06:36:55.621Z,16.90
2023-01-27T06:40:57.181Z,18.05
2023-01-27T06:44:58.793Z,11.45
2023-01-27T06:49:00.316Z,14.93
2023-01-27T06:53:04.278Z,12.45
2023-01-27T06:57:05.972Z,14.50
2023-01-27T07:01:07.650Z,16.02
2023-01-27T07:05:11.281Z,14.27
2023-01-27T07:09:12.883Z,15.23
2023-01-27T07:13:15.122Z,18.25
2023-01-27T07:17:16.716Z,16.83
2023-01-27T07:21:18.287Z,14.07
2023-01-27T07:25:19.855Z,12.25
2023-01-27T07:29:21.505Z,18.38
2023-01-27T07:33:23.144Z,19.23
2023-01-27T07:37:24.797Z,21.17
2023-01-27T07:41:26.541Z,18.27
2023-01-27T07:45:29.244Z,15.50
2023-01-27T07:49:30.924Z,13.27
2023-01-27T07:53:32.580Z,11.60
2023-01-27T07:57:34.448Z,12.32
2023-01-27T08:01:36.805Z,17.38
2023-01-27T08:05:38.529Z,16.33
2023-01-27T08:09:40.074Z,12.90
2023-01-27T08:13:42.961Z,11.18
2023-01-27T08:21:46.288Z,14.50
2023-01-27T08:25:56.943Z,13.27
2023-01-27T08:29:58.665Z,13.82
2023-01-27T08:34:00.461Z,11.98
2023-01-27T08:38:02.018Z,12.30
2023-01-27T08:42:03.898Z,68.97
2023-01-27T08:46:08.736Z,72.10
2023-01-27T08:50:11.579Z,88.85
2023-01-27T08:54:13.512Z,48.53
2023-01-27T08:58:17.373Z,36.38
2023-01-27T09:02:20.427Z,20.20
2023-01-27T09:06:22.467Z,14.85
2023-01-27T09:10:24.409Z,11.70
2023-01-27T09:14:26.158Z,8.48
2023-01-27T09:18:27.688Z,10.80
2023-01-27T09:22:29.417Z,11.10
2023-01-27T09:26:31.210Z,16.05
2023-01-27T09:30:32.870Z,14.80
2023-01-27T09:34:35.158Z,11.32
2023-01-27T09:38:45.755Z,10.02
2023-01-27T09:43:14.734Z,11.77
2023-01-27T09:47:34.609Z,14.73
2023-01-27T09:52:01.386Z,13.23
2023-01-27T09:56:19.918Z,12.90
2023-01-27T10:00:28.294Z,12.63
2023-01-27T10:05:07.795Z,13.85
2023-01-27T10:09:38.547Z,16.83
2023-01-27T10:13:52.107Z,21.90
2023-01-27T10:18:08.492Z,16.15
2023-01-27T10:22:09.996Z,13.00
2023-01-27T10:26:28.107Z,9.52
2023-01-27T10:30:37.075Z,14.32
2023-01-27T10:34:49.368Z,11.90
2023-01-27T10:39:09.675Z,13.00
2023-01-27T10:43:23.065Z,55.60
2023-01-27T10:47:50.027Z,13.70
2023-01-27T10:52:00.701Z,9.93
2023-01-27T10:56:25.652Z,10.00
2023-01-27T11:05:07.505Z,9.35
2023-01-27T11:09:24.452Z,10.68
2023-01-27T11:13:28.105Z,10.20
2023-01-27T11:17:38.680Z,11.43
2023-01-27T11:21:41.654Z,6.32
2023-01-27T11:29:55.173Z,6.03
2023-01-27T11:34:16.361Z,6.78
2023-01-27T11:38:20.793Z,5.05
2023-01-27T11:42:22.997Z,4.72
2023-01-27T11:46:24.736Z,7.40
2023-01-27T11:50:31.905Z,5.32
2023-01-27T11:54:40.065Z,6.03
2023-01-27T11:58:53.259Z,4.22
2023-01-27T12:03:11.409Z,4.97
2023-01-27T12:07:29.154Z,4.78
2023-01-27T12:11:32.584Z,4.68
2023-01-27T12:15:35.245Z,5.68
2023-01-27T12:19:42.219Z,5.45
2023-01-27T12:23:55.536Z,4.15
2023-01-27T12:28:01.181Z,3.83
2023-01-27T12:32:03.020Z,5.30
2023-01-27T12:36:13.705Z,10.25
2023-01-27T12:40:20.392Z,7.97
2023-01-27T12:44:27.003Z,7.53
2023-01-27T12:48:31.108Z,4.18
2023-01-27T12:52:32.697Z,6.57
2023-01-27T12:56:34.935Z,3.28
2023-01-27T13:00:36.640Z,3.60
2023-01-27T13:04:38.730Z,3.08
2023-01-27T13:08:41.694Z,2.77
2023-01-27T13:12:58.469Z,2.58
2023-01-27T13:17:00.104Z,3.42
2023-01-27T13:21:15.858Z,2.38
2023-01-27T13:25:26.409Z,2.28
2023-01-27T13:29:34.880Z,3.75
2023-01-27T13:33:44.862Z,3.10
2023-01-27T13:38:10.412Z,4.10
2023-01-27T13:42:21.565Z,3.20
2023-01-27T13:46:28.772Z,2.85
2023-01-27T13:50:37.968Z,2.08
2023-01-27T13:54:42.513Z,2.65
2023-01-27T13:59:05.476Z,1.73
2023-01-27T14:03:35.723Z,1.35
2023-01-27T14:07:54.876Z,1.73
2023-01-27T14:12:16.511Z,1.25
2023-01-27T14:16:54.669Z,2.80
2023-01-27T14:21:39.290Z,2.03
2023-01-27T14:25:53.754Z,1.95
2023-01-27T14:30:27.264Z,2.00
2023-01-27T14:35:11.038Z,1.25
2023-01-27T14:39:18.702Z,2.72
2023-01-27T14:43:37.054Z,3.08
2023-01-27T14:47:38.690Z,1.83
2023-01-27T14:51:47.284Z,4.05
2023-01-27T14:55:58.280Z,7.63
2023-01-27T15:00:31.075Z,6.78
2023-01-27T15:04:55.997Z,2.75
2023-01-27T15:09:29.255Z,2.38
2023-01-27T15:13:45.901Z,3.65
2023-01-27T15:18:16.294Z,2.42
2023-01-27T15:22:47.654Z,2.92
2023-01-27T15:26:49.708Z,1.80
2023-01-27T15:31:15.560Z,1.10
2023-01-27T15:35:30.151Z,1.13
2023-01-27T15:39:40.924Z,1.75
2023-01-27T15:44:15.432Z,1.73
2023-01-27T15:48:23.119Z,3.08
2023-01-27T15:52:31.773Z,1.98
2023-01-27T15:56:50.366Z,2.45
2023-01-27T16:00:55.655Z,2.83
2023-01-27T16:05:20.338Z,2.58
2023-01-27T16:09:43.142Z,1.80
2023-01-27T16:13:45.361Z,1.65
2023-01-27T16:18:06.613Z,2.70
2023-01-27T16:22:19.649Z,2.35
2023-01-27T16:31:15.351Z,1.88
2023-01-27T16:35:21.436Z,2.35
2023-01-27T16:39:34.665Z,2.42
2023-01-27T16:43:49.553Z,3.10
2023-01-27T16:48:02.088Z,2.35
2023-01-27T16:52:05.654Z,2.95
2023-01-27T16:56:19.467Z,5.20
2023-01-27T17:00:25.447Z,4.82
2023-01-27T17:04:34.085Z,5.72
2023-01-27T17:08:44.237Z,6.03
2023-01-27T17:12:50.395Z,7.10
2023-01-27T17:16:52.805Z,6.43
2023-01-27T17:20:55.386Z,5.65
2023-01-27T17:25:03.384Z,4.40
2023-01-27T17:29:05.133Z,10.32
2023-01-27T17:33:14.202Z,8.10
2023-01-27T17:37:21.614Z,5.63
2023-01-27T17:41:37.456Z,3.65
2023-01-27T17:45:39.285Z,4.68
2023-01-27T17:49:42.016Z,5.30
2023-01-27T17:53:43.656Z,4.47
2023-01-27T17:57:47.645Z,4.68
2023-01-27T18:01:52.094Z,4.10
2023-01-27T18:05:54.730Z,4.07
2023-01-27T18:09:57.057Z,3.33
2023-01-27T18:14:14.258Z,4.57
2023-01-27T18:18:18.935Z,4.28
2023-01-27T18:22:20.689Z,12.02
2023-01-27T18:26:33.314Z,6.03
2023-01-27T18:30:35.109Z,5.85
2023-01-27T18:34:47.290Z,5.25
2023-01-27T18:38:50.965Z,5.57
2023-01-27T18:42:53.550Z,10.32
2023-01-27T18:46:59.328Z,23.60
2023-01-27T18:51:00.880Z,33.47
2023-01-27T18:55:22.208Z,60.90
2023-01-27T18:59:23.736Z,14.93
2023-01-27T19:03:27.334Z,6.90
2023-01-27T19:07:28.872Z,5.45
2023-01-27T19:11:32.775Z,5.28
2023-01-27T19:15:38.703Z,10.57
2023-01-27T19:19:40.410Z,12.45
2023-01-27T19:23:44.568Z,13.95
2023-01-27T19:27:48.739Z,16.25
2023-01-27T19:31:50.441Z,11.90
2023-01-27T19:36:00.145Z,14.13
2023-01-27T19:40:02.749Z,11.32
2023-01-27T19:44:04.575Z,5.88
2023-01-27T19:48:13.930Z,6.22
2023-01-27T19:52:15.523Z,5.22
2023-01-27T19:56:22.015Z,4.60
2023-01-27T20:00:29.827Z,7.20
2023-01-27T20:04:31.505Z,9.02
2023-01-27T20:08:33.151Z,6.10
2023-01-27T20:12:35.329Z,8.68
2023-01-27T20:16:37.010Z,7.20
2023-01-27T20:20:38.649Z,5.70
2023-01-27T20:24:40.202Z,6.75
2023-01-27T20:28:41.845Z,6.18
2023-01-27T20:32:43.583Z,17.92
2023-01-27T20:36:45.130Z,66.13
2023-01-27T20:40:46.824Z,33.22
2023-01-27T20:44:48.377Z,49.63
2023-01-27T20:48:50.032Z,25.95
2023-01-27T20:52:51.771Z,40.55
2023-01-27T20:56:53.379Z,23.33
2023-01-27T21:01:08.304Z,21.60
2023-01-27T21:05:10.542Z,9.48
2023-01-27T21:09:12.178Z,10.63
2023-01-27T21:13:13.739Z,8.73
2023-01-27T21:17:15.342Z,6.63
2023-01-27T21:21:28.702Z,5.45
2023-01-27T21:25:30.339Z,6.97
2023-01-27T21:29:32.230Z,15.98
2023-01-27T21:33:38.104Z,10.63
2023-01-27T21:37:40.323Z,5.50
2023-01-27T21:41:54.065Z,6.72
2023-01-27T21:45:59.123Z,4.72
2023-01-27T21:50:05.841Z,5.32
2023-01-27T21:54:07.456Z,7.75
2023-01-27T21:58:09.795Z,5.50
2023-01-27T22:02:12.622Z,5.50
2023-01-27T22:10:19.713Z,6.13
2023-01-27T22:14:21.364Z,6.50
2023-01-27T22:18:23.050Z,13.25
2023-01-27T22:22:24.674Z,9.05
2023-01-27T22:26:26.244Z,13.38
2023-01-27T22:30:27.912Z,11.38
2023-01-27T22:34:29.476Z,12.35
2023-01-27T22:38:31.285Z,113.00
2023-01-27T22:42:33.298Z,39.40
2023-01-27T22:46:34.835Z,22.57
2023-01-27T22:50:37.100Z,22.35
2023-01-27T22:54:38.649Z,39.55
2023-01-27T22:58:40.220Z,23.90
2023-01-27T23:02:41.901Z,19.10
2023-01-27T23:06:43.579Z,18.98
2023-01-27T23:10:45.181Z,13.18
2023-01-27T23:14:46.703Z,7.38
2023-01-27T23:18:48.234Z,6.43
2023-01-27T23:22:50.051Z,5.40
2023-01-27T23:26:51.642Z,4.78
2023-01-27T23:30:53.878Z,5.03
2023-01-27T23:34:55.483Z,3.55
2023-01-27T23:38:57.053Z,5.93
2023-01-27T23:42:58.641Z,6.00
2023-01-27T23:47:00.770Z,5.10
2023-01-27T23:51:09.725Z,5.13
2023-01-27T23:55:14.777Z,6.00
2023-01-27T23:59:16.712Z,4.50
